Time,TemperatureF,DewpointF,PressureIn,WindDirection,WindDirectionDegrees,WindSpeedMPH,WindSpeedGustMPH,Humidity,HourlyPrecipIn,Conditions,Clouds,dailyrainin,SoftwareType,DateUTC
2013-07-09 00:01:00,64.3,62.8,30.00,NNE,21,0.0,0.0,95,0.00,,,0.00,Wunderground v.1.12,2013-07-09 04:01:00,
2013-07-09 00:02:00,64.3,62.8,29.99,NNE,21,0.0,0.0,95,0.00,,,0.00,Wunderground v.1.12,2013-07-09 04:02:00,
2013-07-09 00:03:00,64.3,62.5,29.99,NNE,23,0.0,1.0,94,0.00,,,0.00,Wunderground v.1.12,2013-07-09 04:03:00,
2013-07-09 00:06:00,64.3,62.8,29.99,NNE,21,0.0,0.0,95,0.00,,,0.00,Wunderground v.1.12,2013-07-09 04:06:00,
2013-07-09 00:11:00,64.3,62.5,29.99,NNE,21,0.0,0.0,94,0.00,,,0.00,Wunderground v.1.12,2013-07-09 04:11:00,
2013-07-09 00:16:00,64.3,62.5,29.99,NNE,21,0.0,0.0,94,0.00,,,0.00,Wunderground v.1.12,2013-07-09 04:16:00,
2013-07-09 00:17:00,64.3,62.5,29.99,NNE,21,0.0,0.0,94,0.00,,,0.00,Wunderground v.1.12,2013-07-09 04:17:00,
2013-07-09 00:22:00,64.3,62.5,29.99,NNE,21,0.0,0.0,94,0.00,,,0.00,Wunderground v.1.12,2013-07-09 04:22:00,
2013-07-09 00:27:00,64.3,62.5,29.99,NNE,21,0.0,0.0,94,0.00,,,0.00,Wunderground v.1.12,2013-07-09 04:27:00,
2013-07-09 00:32:00,64.3,62.5,30.00,NNE,21,0.0,0.0,94,0.00,,,0.00,Wunderground v.1.12,2013-07-09 04:32:00,
2013-07-09 00:38:00,64.3,62.5,30.00,NNE,21,0.0,1.0,94,0.00,,,0.00,Wunderground v.1.12,2013-07-09 04:38:00,
2013-07-09 00:43:00,64.3,62.5,30.00,NNE,21,0.0,0.0,94,0.00,,,0.00,Wunderground v.1.12,2013-07-09 04:43:00,
2013-07-09 00:49:00,64.5,62.7,29.99,NNE,21,0.0,0.0,94,0.00,,,0.00,Wunderground v.1.12,2013-07-09 04:49:00,
2013-07-09 00:54:00,64.5,62.7,29.99,NNE,21,0.0,0.0,94,0.00,,,0.00,Wunderground v.1.12,2013-07-09 04:54:00,
2013-07-09 00:59:00,64.5,62.7,29.99,NNE,21,0.0,0.0,94,0.00,,,0.00,Wunderground v.1.12,2013-07-09 04:59:00,
2013-07-09 01:04:00,64.5,62.7,29.99,NNE,21,0.0,0.0,94,0.00,,,0.00,Wunderground v.1.12,2013-07-09 05:04:00,
2013-07-09 01:10:00,64.5,62.7,29.99,NNE,21,0.0,0.0,94,0.00,,,0.00,Wunderground v.1.12,2013-07-09 05:10:00,
2013-07-09 01:16:00,64.5,62.7,29.99,NNE,21,0.0,0.0,94,0.00,,,0.00,Wunderground v.1.12,2013-07-09 05:16:00,
2013-07-09 01:22:00,64.5,62.7,29.99,NNE,21,0.0,0.0,94,0.00,,,0.00,Wunderground v.1.12,2013-07-09 05:22:00,
2013-07-09 01:28:00,64.5,63.0,29.99,NNE,21,0.0,0.0,95,0.00,,,0.00,Wunderground v.1.12,2013-07-09 05:28:00,
2013-07-09 01:33:00,64.8,63.3,29.99,NNE,21,0.0,0.0,95,0.00,,,0.00,Wunderground v.1.12,2013-07-09 05:33:00,
2013-07-09 01:39:00,64.8,63.3,29.99,NNE,21,0.0,0.0,95,0.00,,,0.00,Wunderground v.1.12,2013-07-09 05:39:00,
2013-07-09 01:45:00,64.8,63.3,29.99,NNE,21,0.0,0.0,95,0.00,,,0.00,Wunderground v.1.12,2013-07-09 05:45:00,
2013-07-09 01:50:00,64.8,63.3,29.99,NNE,21,0.0,0.0,95,0.00,,,0.00,Wunderground v.1.12,2013-07-09 05:50:00,
2013-07-09 01:56:00,64.8,63.3,29.99,NNE,21,0.0,0.0,95,0.00,,,0.00,Wunderground v.1.12,2013-07-09 05:56:00,
2013-07-09 02:01:00,64.8,63.3,29.99,NNE,21,0.0,0.0,95,0.00,,,0.00,Wunderground v.1.12,2013-07-09 06:01:00,
2013-07-09 02:06:00,64.8,63.3,29.99,NNE,21,0.0,0.0,95,0.00,,,0.00,Wunderground v.1.12,2013-07-09 06:06:00,
2013-07-09 02:12:00,64.8,63.3,29.99,NNE,21,0.0,0.0,95,0.00,,,0.00,Wunderground v.1.12,2013-07-09 06:12:00,
2013-07-09 02:18:00,64.8,63.3,29.98,NNE,21,0.0,0.0,95,0.00,,,0.00,Wunderground v.1.12,2013-07-09 06:18:00,
2013-07-09 02:24:00,64.7,62.9,29.98,NNE,21,0.0,0.0,94,0.00,,,0.00,Wunderground v.1.12,2013-07-09 06:24:00,
2013-07-09 02:29:00,64.7,62.9,29.98,NNE,21,0.0,0.0,94,0.00,,,0.00,Wunderground v.1.12,2013-07-09 06:29:00,
2013-07-09 02:34:00,64.7,62.9,29.99,NNE,21,0.0,0.0,94,0.00,,,0.00,Wunderground v.1.12,2013-07-09 06:34:00,
2013-07-09 02:40:00,64.7,62.9,29.99,NNE,21,0.0,0.0,94,0.00,,,0.00,Wunderground v.1.12,2013-07-09 06:40:00,
2013-07-09 02:45:00,64.5,62.7,29.99,NNE,21,0.0,0.0,94,0.00,,,0.00,Wunderground v.1.12,2013-07-09 06:45:00,
2013-07-09 02:50:00,64.5,62.7,29.98,NNW,344,0.0,0.0,94,0.00,,,0.00,Wunderground v.1.12,2013-07-09 06:50:00,
2013-07-09 02:56:00,64.5,62.7,29.98,NNW,344,0.0,0.0,94,0.00,,,0.00,Wunderground v.1.12,2013-07-09 06:56:00,
2013-07-09 03:01:00,64.5,62.7,29.98,NNW,344,0.0,0.0,94,0.00,,,0.00,Wunderground v.1.12,2013-07-09 07:01:00,
2013-07-09 03:06:00,64.5,62.7,29.98,NNW,344,0.0,0.0,94,0.00,,,0.00,Wunderground v.1.12,2013-07-09 07:06:00,
2013-07-09 03:12:00,64.7,62.9,29.98,NNW,344,0.0,0.0,94,0.00,,,0.00,Wunderground v.1.12,2013-07-09 07:12:00,
2013-07-09 03:17:00,64.7,62.9,29.98,NNW,344,0.0,0.0,94,0.00,,,0.00,Wunderground v.1.12,2013-07-09 07:17:00,
2013-07-09 03:22:00,64.7,62.9,29.98,NNW,344,0.0,0.0,94,0.00,,,0.00,Wunderground v.1.12,2013-07-09 07:22:00,
2013-07-09 03:27:00,64.7,62.9,29.98,NNW,344,0.0,0.0,94,0.00,,,0.00,Wunderground v.1.12,2013-07-09 07:27:00,
2013-07-09 03:33:00,64.5,62.7,29.98,NNE,23,0.0,5.0,94,0.00,,,0.00,Wunderground v.1.12,2013-07-09 07:33:00,
2013-07-09 03:38:00,64.5,62.7,29.99,NNW,344,0.0,0.0,94,0.00,,,0.00,Wunderground v.1.12,2013-07-09 07:38:00,
2013-07-09 03:44:00,64.5,62.7,29.99,NNW,344,0.0,0.0,94,0.00,,,0.00,Wunderground v.1.12,2013-07-09 07:44:00,
2013-07-09 03:53:00,64.7,62.9,29.98,NNW,344,0.0,0.0,94,0.00,,,0.00,Wunderground v.1.12,2013-07-09 07:53:00,
2013-07-09 03:59:00,64.7,62.9,29.98,NNW,344,0.0,1.0,94,0.00,,,0.00,Wunderground v.1.12,2013-07-09 07:59:00,
2013-07-09 04:04:00,64.7,62.9,29.98,NNW,344,0.0,0.0,94,0.00,,,0.00,Wunderground v.1.12,2013-07-09 08:04:00,
2013-07-09 04:10:00,64.7,62.9,29.98,NNW,344,0.0,0.0,94,0.00,,,0.00,Wunderground v.1.12,2013-07-09 08:10:00,
2013-07-09 04:15:00,64.7,62.9,29.98,NNW,344,0.0,0.0,94,0.00,,,0.00,Wunderground v.1.12,2013-07-09 08:15:00,
2013-07-09 04:21:00,64.5,62.7,29.98,NNW,344,0.0,0.0,94,0.00,,,0.00,Wunderground v.1.12,2013-07-09 08:21:00,
2013-07-09 04:27:00,64.5,62.7,29.98,NNW,344,0.0,0.0,94,0.00,,,0.00,Wunderground v.1.12,2013-07-09 08:27:00,
2013-07-09 04:32:00,64.7,62.9,29.99,NNW,344,0.0,0.0,94,0.00,,,0.00,Wunderground v.1.12,2013-07-09 08:32:00,
2013-07-09 04:38:00,64.5,62.7,29.99,NNW,344,0.0,1.0,94,0.00,,,0.00,Wunderground v.1.12,2013-07-09 08:38:00,
2013-07-09 04:43:00,64.5,62.7,29.99,NNW,344,0.0,0.0,94,0.00,,,0.00,Wunderground v.1.12,2013-07-09 08:43:00,
2013-07-09 04:49:00,64.5,62.7,29.99,NNW,344,0.0,0.0,94,0.00,,,0.00,Wunderground v.1.12,2013-07-09 08:49:00,
2013-07-09 04:55:00,64.7,62.9,29.99,NNW,344,0.0,0.0,94,0.00,,,0.00,Wunderground v.1.12,2013-07-09 08:55:00,
2013-07-09 05:01:00,64.7,62.9,29.99,NNW,344,0.0,0.0,94,0.00,,,0.00,Wunderground v.1.12,2013-07-09 09:01:00,
2013-07-09 05:07:00,64.7,62.6,29.99,NNW,344,0.0,0.0,93,0.00,,,0.00,Wunderground v.1.12,2013-07-09 09:07:00,
2013-07-09 05:12:00,64.7,62.6,29.99,NNW,344,0.0,0.0,93,0.00,,,0.00,Wunderground v.1.12,2013-07-09 09:12:00,
2013-07-09 05:18:00,64.7,62.6,29.99,NNW,344,0.0,0.0,93,0.00,,,0.00,Wunderground v.1.12,2013-07-09 09:18:00,
2013-07-09 05:23:00,64.7,62.6,29.99,NNW,344,0.0,0.0,93,0.00,,,0.00,Wunderground v.1.12,2013-07-09 09:23:00,
2013-07-09 05:29:00,64.7,62.6,29.99,NNW,344,0.0,0.0,93,0.00,,,0.00,Wunderground v.1.12,2013-07-09 09:29:00,
2013-07-09 05:37:00,64.7,62.9,29.99,NNW,338,0.0,2.0,94,0.00,,,0.00,Wunderground v.1.12,2013-07-09 09:37:00,
2013-07-09 05:43:00,64.8,62.7,30.00,NNW,344,0.0,1.0,93,0.00,,,0.00,Wunderground v.1.12,2013-07-09 09:43:00,
2013-07-09 05:49:00,64.8,62.4,30.01,NNW,345,0.0,0.0,92,0.00,,,0.00,Wunderground v.1.12,2013-07-09 09:49:00,
2013-07-09 05:54:00,64.8,62.4,30.01,NNW,345,0.0,0.0,92,0.00,,,0.00,Wunderground v.1.12,2013-07-09 09:54:00,
2013-07-09 05:59:00,64.8,62.4,30.01,NNW,345,0.0,0.0,92,0.00,,,0.00,Wunderground v.1.12,2013-07-09 09:59:00,
2013-07-09 06:05:00,64.8,62.4,30.01,NNW,345,0.0,0.0,92,0.00,,,0.00,Wunderground v.1.12,2013-07-09 10:05:00,
2013-07-09 06:10:00,64.8,62.4,30.01,NNW,345,0.0,0.0,92,0.00,,,0.00,Wunderground v.1.12,2013-07-09 10:10:00,
2013-07-09 06:15:00,65.0,62.6,30.01,NNW,345,0.0,0.0,92,0.00,,,0.00,Wunderground v.1.12,2013-07-09 10:15:00,
2013-07-09 06:21:00,65.0,62.6,30.01,NNW,345,0.0,0.0,92,0.00,,,0.00,Wunderground v.1.12,2013-07-09 10:21:00,
2013-07-09 06:27:00,65.2,62.8,30.01,NNW,345,0.0,0.0,92,0.00,,,0.00,Wunderground v.1.12,2013-07-09 10:27:00,
2013-07-09 06:33:00,64.8,62.4,30.01,NNW,338,0.0,3.0,92,0.00,,,0.00,Wunderground v.1.12,2013-07-09 10:33:00,
2013-07-09 06:39:00,65.3,62.9,30.01,NNW,345,0.0,1.0,92,0.00,,,0.00,Wunderground v.1.12,2013-07-09 10:39:00,
2013-07-09 06:44:00,65.3,62.6,30.01,NNW,345,0.0,0.0,91,0.00,,,0.00,Wunderground v.1.12,2013-07-09 10:44:00,
2013-07-09 06:49:00,65.3,62.9,30.01,NNW,345,0.0,0.0,92,0.00,,,0.00,Wunderground v.1.12,2013-07-09 10:49:00,
2013-07-09 06:55:00,65.3,62.9,30.01,NNW,345,0.0,1.0,92,0.00,,,0.00,Wunderground v.1.12,2013-07-09 10:55:00,
2013-07-09 07:00:00,65.5,62.8,30.01,NNW,344,0.0,0.0,91,0.00,,,0.00,Wunderground v.1.12,2013-07-09 11:00:00,
2013-07-09 07:05:00,65.5,62.8,30.02,NNW,344,0.0,0.0,91,0.00,,,0.00,Wunderground v.1.12,2013-07-09 11:05:00,
2013-07-09 07:10:00,65.6,62.9,30.02,NNW,344,0.0,0.0,91,0.00,,,0.00,Wunderground v.1.12,2013-07-09 11:10:00,
2013-07-09 07:16:00,65.8,63.1,30.02,NNW,344,0.0,0.0,91,0.00,,,0.00,Wunderground v.1.12,2013-07-09 11:16:00,
2013-07-09 07:21:00,66.0,63.3,30.02,NNW,344,0.0,0.0,91,0.00,,,0.00,Wunderground v.1.12,2013-07-09 11:21:00,
2013-07-09 07:26:00,66.0,63.0,30.02,NNW,344,0.0,0.0,90,0.00,,,0.00,Wunderground v.1.12,2013-07-09 11:26:00,
2013-07-09 07:32:00,66.1,63.1,30.02,NNW,344,0.0,0.0,90,0.00,,,0.00,Wunderground v.1.12,2013-07-09 11:32:00,
2013-07-09 07:37:00,66.3,63.3,30.02,NNW,344,0.0,0.0,90,0.00,,,0.00,Wunderground v.1.12,2013-07-09 11:37:00,
2013-07-09 07:42:00,66.3,63.0,30.02,NNW,344,0.0,0.0,89,0.00,,,0.00,Wunderground v.1.12,2013-07-09 11:42:00,
2013-07-09 07:49:00,66.4,63.1,30.03,NNW,344,0.0,0.0,89,0.00,,,0.00,Wunderground v.1.12,2013-07-09 11:49:00,
2013-07-09 07:55:00,66.6,63.3,30.03,NNW,344,0.0,0.0,89,0.00,,,0.00,Wunderground v.1.12,2013-07-09 11:55:00,
2013-07-09 08:00:00,66.8,63.5,30.03,NNW,344,0.0,0.0,89,0.00,,,0.00,Wunderground v.1.12,2013-07-09 12:00:00,
2013-07-09 08:05:00,66.9,63.2,30.03,NNW,337,0.0,0.0,88,0.00,,,0.00,Wunderground v.1.12,2013-07-09 12:05:00,
2013-07-09 08:10:00,67.1,63.4,30.03,NNW,338,0.0,0.0,88,0.00,,,0.00,Wunderground v.1.12,2013-07-09 12:10:00,
2013-07-09 08:16:00,67.4,63.4,30.03,NNW,338,0.0,0.0,87,0.00,,,0.00,Wunderground v.1.12,2013-07-09 12:16:00,
2013-07-09 08:22:00,67.6,63.6,30.04,NNW,338,0.0,0.0,87,0.00,,,0.00,Wunderground v.1.12,2013-07-09 12:22:00,
2013-07-09 08:27:00,67.8,63.5,30.04,NNW,338,0.0,0.0,86,0.00,,,0.00,Wunderground v.1.12,2013-07-09 12:27:00,
2013-07-09 08:33:00,66.9,63.2,30.03,NNW,338,0.0,1.0,88,0.00,,,0.00,Wunderground v.1.12,2013-07-09 12:33:00,
2013-07-09 08:39:00,68.1,63.8,30.03,NNW,338,0.0,0.0,86,0.00,,,0.00,Wunderground v.1.12,2013-07-09 12:39:00,
2013-07-09 08:45:00,68.3,63.9,30.03,NNW,338,0.0,0.0,86,0.00,,,0.00,Wunderground v.1.12,2013-07-09 12:45:00,
2013-07-09 08:51:00,68.3,63.6,30.03,NNW,339,0.0,0.0,85,0.00,,,0.00,Wunderground v.1.12,2013-07-09 12:51:00,
2013-07-09 08:57:00,68.3,63.9,30.03,NNW,339,0.0,0.0,86,0.00,,,0.00,Wunderground v.1.12,2013-07-09 12:57:00,
2013-07-09 09:02:00,68.4,63.7,30.04,NNW,339,0.0,0.0,85,0.00,,,0.00,Wunderground v.1.12,2013-07-09 13:02:00,
2013-07-09 09:08:00,68.8,64.1,30.04,NNW,339,0.0,0.0,85,0.00,,,0.00,Wunderground v.1.12,2013-07-09 13:08:00,
2013-07-09 09:13:00,69.1,64.4,30.04,NNW,339,0.0,0.0,85,0.00,,,0.00,Wunderground v.1.12,2013-07-09 13:13:00,
2013-07-09 09:18:00,69.1,64.1,30.04,NNW,339,0.0,0.0,84,0.00,,,0.00,Wunderground v.1.12,2013-07-09 13:18:00,
2013-07-09 09:24:00,69.3,64.3,30.04,NNW,339,0.0,0.0,84,0.00,,,0.00,Wunderground v.1.12,2013-07-09 13:24:00,
2013-07-09 09:29:00,69.4,64.0,30.04,NNW,339,0.0,0.0,83,0.00,,,0.00,Wunderground v.1.12,2013-07-09 13:29:00,
2013-07-09 09:35:00,69.4,64.0,30.04,NNW,339,0.0,0.0,83,0.00,,,0.00,Wunderground v.1.12,2013-07-09 13:35:00,
2013-07-09 09:40:00,69.4,64.0,30.04,NNW,339,0.0,0.0,83,0.00,,,0.00,Wunderground v.1.12,2013-07-09 13:40:00,
2013-07-09 09:46:00,69.6,64.5,30.04,NNW,339,0.0,0.0,84,0.00,,,0.00,Wunderground v.1.12,2013-07-09 13:46:00,
2013-07-09 09:51:00,69.6,64.5,30.03,NNW,339,0.0,0.0,84,0.00,,,0.00,Wunderground v.1.12,2013-07-09 13:51:00,
2013-07-09 09:56:00,69.6,64.5,30.03,NNW,339,0.0,0.0,84,0.00,,,0.00,Wunderground v.1.12,2013-07-09 13:56:00,
2013-07-09 10:02:00,69.3,63.9,30.03,NNW,339,0.0,0.0,83,0.00,,,0.00,Wunderground v.1.12,2013-07-09 14:02:00,
2013-07-09 10:08:00,69.3,64.3,30.03,NNW,340,0.0,0.0,84,0.00,,,0.00,Wunderground v.1.12,2013-07-09 14:08:00,
2013-07-09 10:13:00,69.3,64.3,30.03,NNW,340,0.0,0.0,84,0.00,,,0.00,Wunderground v.1.12,2013-07-09 14:13:00,
2013-07-09 10:18:00,69.4,64.4,30.03,NNW,340,0.0,0.0,84,0.00,,,0.00,Wunderground v.1.12,2013-07-09 14:18:00,
2013-07-09 10:23:00,69.3,64.3,30.03,NNW,340,0.0,0.0,84,0.00,,,0.00,Wunderground v.1.12,2013-07-09 14:23:00,
2013-07-09 10:28:00,69.4,64.4,30.03,NNW,340,0.0,0.0,84,0.00,,,0.00,Wunderground v.1.12,2013-07-09 14:28:00,
2013-07-09 10:34:00,69.4,64.0,30.04,NNW,340,0.0,0.0,83,0.00,,,0.00,Wunderground v.1.12,2013-07-09 14:34:00,
2013-07-09 10:39:00,69.8,64.4,30.04,NNW,340,0.0,0.0,83,0.00,,,0.00,Wunderground v.1.12,2013-07-09 14:39:00,
2013-07-09 10:44:00,69.4,64.0,30.04,ESE,102,0.0,2.0,83,0.00,,,0.00,Wunderground v.1.12,2013-07-09 14:44:00,
2013-07-09 10:49:00,69.3,63.9,30.04,ESE,102,0.0,0.0,83,0.00,,,0.00,Wunderground v.1.12,2013-07-09 14:49:00,
2013-07-09 10:54:00,68.9,63.5,30.04,ESE,102,0.0,0.0,83,0.00,,,0.00,Wunderground v.1.12,2013-07-09 14:54:00,
2013-07-09 11:00:00,68.8,63.8,30.04,ESE,103,0.0,0.0,84,0.00,,,0.00,Wunderground v.1.12,2013-07-09 15:00:00,
2013-07-09 11:05:00,68.6,63.6,30.04,ESE,106,0.0,0.0,84,0.00,,,0.00,Wunderground v.1.12,2013-07-09 15:05:00,
2013-07-09 11:10:00,68.8,63.8,30.04,ESE,106,0.0,0.0,84,0.00,,,0.00,Wunderground v.1.12,2013-07-09 15:10:00,
2013-07-09 11:15:00,69.3,64.3,30.04,ESE,106,0.0,0.0,84,0.00,,,0.00,Wunderground v.1.12,2013-07-09 15:15:00,
2013-07-09 11:21:00,69.8,64.4,30.04,ESE,106,0.0,0.0,83,0.00,,,0.00,Wunderground v.1.12,2013-07-09 15:21:00,
2013-07-09 11:26:00,70.1,64.0,30.04,ESE,105,0.0,0.0,81,0.00,,,0.00,Wunderground v.1.12,2013-07-09 15:26:00,
2013-07-09 11:31:00,70.6,64.5,30.04,ESE,105,0.0,0.0,81,0.00,,,0.00,Wunderground v.1.12,2013-07-09 15:31:00,
2013-07-09 11:36:00,71.1,64.6,30.04,ESE,105,0.0,0.0,80,0.00,,,0.00,Wunderground v.1.12,2013-07-09 15:36:00,
2013-07-09 11:41:00,71.5,64.6,30.04,ESE,105,0.0,0.0,79,0.00,,,0.00,Wunderground v.1.12,2013-07-09 15:41:00,
2013-07-09 11:46:00,71.6,64.4,30.04,East,98,0.0,1.0,78,0.00,,,0.00,Wunderground v.1.12,2013-07-09 15:46:00,
2013-07-09 11:52:00,71.5,64.6,30.04,East,98,0.0,0.0,79,0.00,,,0.00,Wunderground v.1.12,2013-07-09 15:52:00,
2013-07-09 11:57:00,71.1,64.3,30.04,East,98,0.0,1.0,79,0.00,,,0.00,Wunderground v.1.12,2013-07-09 15:57:00,
2013-07-09 12:03:00,70.8,64.3,30.04,ESE,113,0.0,1.0,80,0.00,,,0.00,Wunderground v.1.12,2013-07-09 16:03:00,
2013-07-09 12:09:00,71.8,63.8,30.03,ESE,102,0.0,2.0,76,0.00,,,0.00,Wunderground v.1.12,2013-07-09 16:09:00,
2013-07-09 12:14:00,71.1,63.9,30.03,ESE,103,1.0,1.0,78,0.00,,,0.00,Wunderground v.1.12,2013-07-09 16:14:00,
2013-07-09 12:21:00,70.8,64.0,30.03,ESE,122,1.0,1.0,79,0.00,,,0.00,Wunderground v.1.12,2013-07-09 16:21:00,
2013-07-09 12:26:00,70.4,63.2,30.03,East,98,1.0,2.0,78,0.00,,,0.00,Wunderground v.1.12,2013-07-09 16:26:00,
2013-07-09 12:32:00,69.8,62.3,30.03,ESE,115,1.0,2.0,77,0.00,,,0.00,Wunderground v.1.12,2013-07-09 16:32:00,
2013-07-09 12:38:00,69.6,62.8,30.03,ESE,120,1.0,1.0,79,0.00,,,0.00,Wunderground v.1.12,2013-07-09 16:38:00,
2013-07-09 12:44:00,69.4,62.6,30.03,SE,127,1.0,2.0,79,0.00,,,0.00,Wunderground v.1.12,2013-07-09 16:44:00,
2013-07-09 12:50:00,69.6,62.8,30.03,SE,126,1.0,1.0,79,0.00,,,0.00,Wunderground v.1.12,2013-07-09 16:50:00,
2013-07-09 12:56:00,69.8,62.3,30.03,ESE,119,1.0,1.0,77,0.00,,,0.00,Wunderground v.1.12,2013-07-09 16:56:00,
2013-07-09 13:01:00,69.9,62.7,30.03,ESE,119,0.0,0.0,78,0.00,,,0.00,Wunderground v.1.12,2013-07-09 17:01:00,
2013-07-09 13:07:00,70.6,62.7,30.03,ESE,111,0.0,1.0,76,0.00,,,0.00,Wunderground v.1.12,2013-07-09 17:07:00,
2013-07-09 13:12:00,70.8,63.2,30.03,ENE,78,1.0,1.0,77,0.00,,,0.00,Wunderground v.1.12,2013-07-09 17:12:00,
2013-07-09 13:18:00,70.8,63.2,30.03,ENE,78,0.0,0.0,77,0.00,,,0.00,Wunderground v.1.12,2013-07-09 17:18:00,
2013-07-09 13:24:00,70.9,63.3,30.03,ENE,78,0.0,0.0,77,0.00,,,0.00,Wunderground v.1.12,2013-07-09 17:24:00,
2013-07-09 13:29:00,71.5,63.5,30.03,ENE,78,0.0,0.0,76,0.00,,,0.00,Wunderground v.1.12,2013-07-09 17:29:00,
2013-07-09 13:34:00,72.0,63.3,30.03,ENE,78,0.0,1.0,74,0.00,,,0.00,Wunderground v.1.12,2013-07-09 17:34:00,
2013-07-09 13:40:00,72.0,63.3,30.03,ENE,78,0.0,1.0,74,0.00,,,0.00,Wunderground v.1.12,2013-07-09 17:40:00,
2013-07-09 13:45:00,72.3,63.2,30.03,ENE,78,0.0,0.0,73,0.00,,,0.00,Wunderground v.1.12,2013-07-09 17:45:00,
2013-07-09 13:50:00,72.7,63.1,30.02,ESE,111,0.0,1.0,72,0.00,,,0.00,Wunderground v.1.12,2013-07-09 17:50:00,
2013-07-09 13:55:00,71.8,62.7,30.02,ESE,113,1.0,3.0,73,0.00,,,0.00,Wunderground v.1.12,2013-07-09 17:55:00,
2013-07-09 14:00:00,71.6,63.3,30.02,ESE,112,1.0,1.0,75,0.00,,,0.00,Wunderground v.1.12,2013-07-09 18:00:00,
2013-07-09 14:06:00,71.5,63.2,30.02,ESE,112,0.0,0.0,75,0.00,,,0.00,Wunderground v.1.12,2013-07-09 18:06:00,
2013-07-09 14:09:00,71.8,63.4,30.02,ESE,112,0.0,0.0,75,0.00,,,0.00,Wunderground v.1.12,2013-07-09 18:09:00,
2013-07-09 14:14:00,71.6,62.9,30.02,ESE,112,0.0,0.0,74,0.00,,,0.00,Wunderground v.1.12,2013-07-09 18:14:00,
2013-07-09 14:20:00,71.1,62.4,30.02,ESE,112,0.0,0.0,74,0.00,,,0.00,Wunderground v.1.12,2013-07-09 18:20:00,
2013-07-09 14:25:00,70.3,62.0,30.02,East,85,0.0,0.0,75,0.00,,,0.00,Wunderground v.1.12,2013-07-09 18:25:00,
2013-07-09 14:31:00,69.9,62.0,30.02,East,100,1.0,1.0,76,0.00,,,0.00,Wunderground v.1.12,2013-07-09 18:31:00,
2013-07-09 14:37:00,69.9,62.0,30.02,ESE,111,0.0,0.0,76,0.00,,,0.00,Wunderground v.1.12,2013-07-09 18:37:00,
2013-07-09 14:43:00,70.3,62.4,30.02,East,96,0.0,3.0,76,0.00,,,0.00,Wunderground v.1.12,2013-07-09 18:43:00,
2013-07-09 14:50:00,70.6,62.7,30.02,East,96,1.0,1.0,76,0.00,,,0.00,Wunderground v.1.12,2013-07-09 18:50:00,
2013-07-09 14:55:00,70.9,62.6,30.02,East,98,0.0,0.0,75,0.00,,,0.00,Wunderground v.1.12,2013-07-09 18:55:00,
2013-07-09 15:01:00,70.8,62.5,30.02,East,86,0.0,1.0,75,0.00,,,0.00,Wunderground v.1.12,2013-07-09 19:01:00,
2013-07-09 15:07:00,70.4,62.5,30.01,ESE,105,0.0,0.0,76,0.00,,,0.00,Wunderground v.1.12,2013-07-09 19:07:00,
2013-07-09 15:13:00,70.4,62.5,30.01,ESE,105,0.0,0.0,76,0.00,,,0.00,Wunderground v.1.12,2013-07-09 19:13:00,
2013-07-09 15:19:00,70.3,62.4,30.01,ESE,104,0.0,2.0,76,0.00,,,0.00,Wunderground v.1.12,2013-07-09 19:19:00,
2013-07-09 15:25:00,69.9,62.0,30.01,ESE,104,0.0,0.0,76,0.00,,,0.00,Wunderground v.1.12,2013-07-09 19:25:00,
2013-07-09 15:31:00,70.1,62.2,30.01,ESE,104,0.0,0.0,76,0.00,,,0.00,Wunderground v.1.12,2013-07-09 19:31:00,
2013-07-09 15:37:00,70.6,62.3,30.01,ESE,104,0.0,0.0,75,0.00,,,0.00,Wunderground v.1.12,2013-07-09 19:37:00,
2013-07-09 15:43:00,71.6,62.5,30.01,ESE,104,0.0,0.0,73,0.00,,,0.00,Wunderground v.1.12,2013-07-09 19:43:00,
2013-07-09 15:49:00,71.8,62.7,30.02,East,96,0.0,1.0,73,0.00,,,0.00,Wunderground v.1.12,2013-07-09 19:49:00,
2013-07-09 15:55:00,70.9,62.6,30.02,East,95,0.0,0.0,75,0.00,,,0.00,Wunderground v.1.12,2013-07-09 19:55:00,
2013-07-09 16:00:00,70.3,62.4,30.02,East,93,0.0,2.0,76,0.00,,,0.00,Wunderground v.1.12,2013-07-09 20:00:00,
2013-07-09 16:05:00,70.4,62.1,30.01,East,96,0.0,0.0,75,0.00,,,0.00,Wunderground v.1.12,2013-07-09 20:05:00,
2013-07-09 16:10:00,70.4,61.3,30.01,East,97,0.0,3.0,73,0.00,,,0.00,Wunderground v.1.12,2013-07-09 20:10:00,
2013-07-09 16:16:00,70.4,61.7,30.01,East,79,0.0,0.0,74,0.00,,,0.00,Wunderground v.1.12,2013-07-09 20:16:00,
2013-07-09 16:21:00,70.4,61.7,30.02,East,79,0.0,0.0,74,0.00,,,0.00,Wunderground v.1.12,2013-07-09 20:21:00,
2013-07-09 16:27:00,70.4,62.1,30.02,East,80,0.0,0.0,75,0.00,,,0.00,Wunderground v.1.12,2013-07-09 20:27:00,
2013-07-09 16:32:00,70.8,62.9,30.02,East,80,0.0,0.0,76,0.00,,,0.00,Wunderground v.1.12,2013-07-09 20:32:00,
2013-07-09 16:39:00,70.9,62.2,30.02,East,81,0.0,1.0,74,0.00,,,0.00,Wunderground v.1.12,2013-07-09 20:39:00,
2013-07-09 16:45:00,70.4,62.1,30.02,ESE,111,1.0,1.0,75,0.00,,,0.00,Wunderground v.1.12,2013-07-09 20:45:00,
2013-07-09 16:50:00,70.1,62.2,30.02,ESE,111,1.0,1.0,76,0.00,,,0.00,Wunderground v.1.12,2013-07-09 20:50:00,
2013-07-09 16:56:00,69.9,62.0,30.02,ESE,111,0.0,0.0,76,0.00,,,0.00,Wunderground v.1.12,2013-07-09 20:56:00,
2013-07-09 17:01:00,69.8,61.9,30.02,SSE,149,0.0,0.0,76,0.00,,,0.00,Wunderground v.1.12,2013-07-09 21:01:00,
2013-07-09 17:07:00,69.6,62.1,30.02,SE,146,0.0,0.0,77,0.00,,,0.00,Wunderground v.1.12,2013-07-09 21:07:00,
2013-07-09 17:13:00,69.4,61.9,30.02,SE,144,0.0,1.0,77,0.00,,,0.00,Wunderground v.1.12,2013-07-09 21:13:00,
2013-07-09 17:18:00,69.4,62.2,30.02,SE,144,0.0,0.0,78,0.00,,,0.00,Wunderground v.1.12,2013-07-09 21:18:00,
2013-07-09 17:23:00,69.6,62.4,30.02,SE,144,0.0,0.0,78,0.00,,,0.00,Wunderground v.1.12,2013-07-09 21:23:00,
2013-07-09 17:28:00,69.4,62.2,30.02,SE,144,0.0,0.0,78,0.00,,,0.00,Wunderground v.1.12,2013-07-09 21:28:00,
2013-07-09 17:33:00,69.4,62.2,30.01,SE,144,0.0,1.0,78,0.00,,,0.00,Wunderground v.1.12,2013-07-09 21:33:00,
2013-07-09 17:38:00,69.4,62.2,30.01,SE,144,0.0,0.0,78,0.00,,,0.00,Wunderground v.1.12,2013-07-09 21:38:00,
2013-07-09 17:44:00,69.3,62.1,30.01,East,99,0.0,0.0,78,0.00,,,0.00,Wunderground v.1.12,2013-07-09 21:44:00,
2013-07-09 17:50:00,69.1,62.3,30.01,East,99,0.0,0.0,79,0.00,,,0.00,Wunderground v.1.12,2013-07-09 21:50:00,
2013-07-09 17:55:00,69.1,62.7,30.01,East,99,0.0,0.0,80,0.00,,,0.00,Wunderground v.1.12,2013-07-09 21:55:00,
2013-07-09 18:01:00,69.1,62.7,30.01,East,98,0.0,0.0,80,0.00,,,0.00,Wunderground v.1.12,2013-07-09 22:01:00,
2013-07-09 18:06:00,68.9,62.1,30.01,East,98,0.0,0.0,79,0.00,,,0.00,Wunderground v.1.12,2013-07-09 22:06:00,
2013-07-09 18:12:00,68.9,62.5,30.01,East,96,0.0,0.0,80,0.00,,,0.00,Wunderground v.1.12,2013-07-09 22:12:00,
2013-07-09 18:17:00,68.8,62.4,30.01,East,96,0.0,0.0,80,0.00,,,0.00,Wunderground v.1.12,2013-07-09 22:17:00,
2013-07-09 18:22:00,68.6,62.2,30.01,East,96,0.0,0.0,80,0.00,,,0.00,Wunderground v.1.12,2013-07-09 22:22:00,
2013-07-09 18:28:00,68.3,62.2,30.01,East,96,0.0,0.0,81,0.00,,,0.00,Wunderground v.1.12,2013-07-09 22:28:00,
2013-07-09 18:32:00,68.3,62.6,30.00,East,96,0.0,0.0,82,0.00,,,0.00,Wunderground v.1.12,2013-07-09 22:32:00,
2013-07-09 18:37:00,68.3,62.6,30.00,East,96,0.0,0.0,82,0.00,,,0.00,Wunderground v.1.12,2013-07-09 22:37:00,
2013-07-09 18:43:00,68.3,62.9,30.00,East,96,0.0,0.0,83,0.00,,,0.00,Wunderground v.1.12,2013-07-09 22:43:00,
2013-07-09 18:48:00,68.4,63.0,30.00,East,96,0.0,0.0,83,0.00,,,0.00,Wunderground v.1.12,2013-07-09 22:48:00,
2013-07-09 18:54:00,68.3,62.9,30.00,East,96,0.0,0.0,83,0.00,,,0.00,Wunderground v.1.12,2013-07-09 22:54:00,
2013-07-09 19:00:00,68.1,62.7,30.00,East,96,0.0,0.0,83,0.00,,,0.00,Wunderground v.1.12,2013-07-09 23:00:00,
2013-07-09 19:06:00,67.9,62.5,30.00,East,95,0.0,0.0,83,0.00,,,0.00,Wunderground v.1.12,2013-07-09 23:06:00,
2013-07-09 19:11:00,67.8,62.8,30.00,East,95,0.0,0.0,84,0.00,,,0.00,Wunderground v.1.12,2013-07-09 23:11:00,
2013-07-09 19:17:00,67.8,62.8,29.99,East,95,0.0,0.0,84,0.00,,,0.00,Wunderground v.1.12,2013-07-09 23:17:00,
2013-07-09 19:22:00,67.8,62.8,29.99,East,95,0.0,0.0,84,0.00,,,0.00,Wunderground v.1.12,2013-07-09 23:22:00,
2013-07-09 19:28:00,67.8,62.8,29.99,East,95,0.0,0.0,84,0.00,,,0.00,Wunderground v.1.12,2013-07-09 23:28:00,
2013-07-09 19:33:00,67.8,62.8,29.99,East,95,0.0,0.0,84,0.00,,,0.00,Wunderground v.1.12,2013-07-09 23:33:00,
2013-07-09 19:39:00,67.6,62.6,29.99,East,95,0.0,0.0,84,0.00,,,0.00,Wunderground v.1.12,2013-07-09 23:39:00,
2013-07-09 19:45:00,67.6,62.6,29.99,East,95,0.0,0.0,84,0.00,,,0.00,Wunderground v.1.12,2013-07-09 23:45:00,
2013-07-09 19:51:00,67.6,62.9,29.99,East,95,0.0,0.0,85,0.00,,,0.00,Wunderground v.1.12,2013-07-09 23:51:00,
2013-07-09 19:56:00,67.4,62.7,29.99,East,95,0.0,0.0,85,0.00,,,0.00,Wunderground v.1.12,2013-07-09 23:56:00,
2013-07-09 20:02:00,67.3,62.6,30.00,East,95,0.0,0.0,85,0.00,,,0.00,Wunderground v.1.12,2013-07-10 00:02:00,
2013-07-09 20:07:00,67.3,62.6,30.00,East,95,0.0,0.0,85,0.00,,,0.00,Wunderground v.1.12,2013-07-10 00:07:00,
2013-07-09 20:13:00,67.1,62.8,30.00,East,95,0.0,0.0,86,0.00,,,0.00,Wunderground v.1.12,2013-07-10 00:13:00,
2013-07-09 20:21:00,66.8,62.5,30.00,East,95,0.0,0.0,86,0.00,,,0.00,Wunderground v.1.12,2013-07-10 00:21:00,
2013-07-09 20:27:00,66.6,62.6,30.00,East,95,0.0,0.0,87,0.00,,,0.00,Wunderground v.1.12,2013-07-10 00:27:00,
2013-07-09 20:33:00,67.3,62.6,30.00,East,90,0.0,2.0,85,0.00,,,0.00,Wunderground v.1.12,2013-07-10 00:33:00,
2013-07-09 20:38:00,66.1,62.4,30.00,East,95,0.0,0.0,88,0.00,,,0.00,Wunderground v.1.12,2013-07-10 00:38:00,
2013-07-09 20:43:00,65.8,62.1,30.00,East,95,0.0,0.0,88,0.00,,,0.00,Wunderground v.1.12,2013-07-10 00:43:00,
2013-07-09 20:49:00,65.6,62.3,30.00,East,95,0.0,0.0,89,0.00,,,0.00,Wunderground v.1.12,2013-07-10 00:49:00,
2013-07-09 20:54:00,65.3,62.0,30.00,East,95,0.0,0.0,89,0.00,,,0.00,Wunderground v.1.12,2013-07-10 00:54:00,
2013-07-09 21:00:00,65.2,62.2,30.00,East,95,0.0,0.0,90,0.00,,,0.00,Wunderground v.1.12,2013-07-10 01:00:00,
2013-07-09 21:05:00,65.0,62.0,30.01,East,95,0.0,0.0,90,0.00,,,0.00,Wunderground v.1.12,2013-07-10 01:05:00,
2013-07-09 21:11:00,64.8,62.1,30.01,East,95,0.0,0.0,91,0.00,,,0.00,Wunderground v.1.12,2013-07-10 01:11:00,
2013-07-09 21:15:00,64.5,61.8,30.01,East,95,0.0,0.0,91,0.00,,,0.00,Wunderground v.1.12,2013-07-10 01:15:00,
2013-07-09 21:21:00,64.3,61.6,30.01,East,95,0.0,0.0,91,0.00,,,0.00,Wunderground v.1.12,2013-07-10 01:21:00,
2013-07-09 21:26:00,64.3,61.9,30.01,East,95,0.0,0.0,92,0.00,,,0.00,Wunderground v.1.12,2013-07-10 01:26:00,
2013-07-09 21:31:00,64.2,61.8,30.01,East,95,0.0,0.0,92,0.00,,,0.00,Wunderground v.1.12,2013-07-10 01:31:00,
2013-07-09 21:36:00,64.0,61.6,30.01,East,95,0.0,0.0,92,0.00,,,0.00,Wunderground v.1.12,2013-07-10 01:36:00,
2013-07-09 21:42:00,64.0,61.6,30.01,SE,124,0.0,1.0,92,0.00,,,0.00,Wunderground v.1.12,2013-07-10 01:42:00,
2013-07-09 21:48:00,63.9,61.8,30.00,SE,124,0.0,0.0,93,0.00,,,0.00,Wunderground v.1.12,2013-07-10 01:48:00,
2013-07-09 21:53:00,63.9,61.8,30.00,ESE,103,0.0,0.0,93,0.00,,,0.00,Wunderground v.1.12,2013-07-10 01:53:00,
2013-07-09 21:59:00,64.0,62.2,30.00,ESE,103,0.0,0.0,94,0.00,,,0.00,Wunderground v.1.12,2013-07-10 01:59:00,
2013-07-09 22:04:00,64.0,62.2,30.01,ESE,103,0.0,0.0,94,0.00,,,0.00,Wunderground v.1.12,2013-07-10 02:04:00,
2013-07-09 22:10:00,64.0,62.2,30.01,ESE,103,0.0,0.0,94,0.00,,,0.00,Wunderground v.1.12,2013-07-10 02:10:00,
2013-07-09 22:16:00,64.2,62.7,30.01,ESE,103,0.0,0.0,95,0.00,,,0.00,Wunderground v.1.12,2013-07-10 02:16:00,
2013-07-09 22:22:00,64.0,62.5,30.01,ESE,103,0.0,0.0,95,0.00,,,0.00,Wunderground v.1.12,2013-07-10 02:22:00,
2013-07-09 22:28:00,64.0,62.5,30.01,ESE,103,0.0,0.0,95,0.00,,,0.00,Wunderground v.1.12,2013-07-10 02:28:00,
2013-07-09 22:33:00,64.0,62.2,30.01,East,90,0.0,4.0,94,0.00,,,0.00,Wunderground v.1.12,2013-07-10 02:33:00,
2013-07-09 22:38:00,64.0,62.5,30.02,ESE,103,0.0,0.0,95,0.00,,,0.00,Wunderground v.1.12,2013-07-10 02:38:00,
2013-07-09 22:43:00,64.0,62.5,30.02,ESE,103,0.0,0.0,95,0.00,,,0.00,Wunderground v.1.12,2013-07-10 02:43:00,
2013-07-09 22:49:00,64.0,62.8,30.02,ESE,103,0.0,0.0,96,0.00,,,0.00,Wunderground v.1.12,2013-07-10 02:49:00,
2013-07-09 22:54:00,64.0,62.8,30.02,ESE,103,0.0,0.0,96,0.00,,,0.00,Wunderground v.1.12,2013-07-10 02:54:00,
2013-07-09 23:00:00,64.0,62.8,30.02,ESE,103,0.0,0.0,96,0.00,,,0.00,Wunderground v.1.12,2013-07-10 03:00:00,
2013-07-09 23:06:00,64.0,62.8,30.02,ESE,103,0.0,0.0,96,0.00,,,0.00,Wunderground v.1.12,2013-07-10 03:06:00,
2013-07-09 23:11:00,63.9,62.7,30.02,ESE,103,0.0,0.0,96,0.00,,,0.00,Wunderground v.1.12,2013-07-10 03:11:00,
2013-07-09 23:17:00,63.9,62.7,30.02,ESE,103,0.0,0.0,96,0.00,,,0.00,Wunderground v.1.12,2013-07-10 03:17:00,
2013-07-09 23:23:00,63.9,62.7,30.02,ESE,103,0.0,0.0,96,0.00,,,0.00,Wunderground v.1.12,2013-07-10 03:23:00,
2013-07-09 23:29:00,63.9,62.7,30.02,ESE,103,0.0,0.0,96,0.00,,,0.00,Wunderground v.1.12,2013-07-10 03:29:00,
2013-07-09 23:34:00,63.9,62.7,30.02,ESE,103,0.0,0.0,96,0.00,,,0.00,Wunderground v.1.12,2013-07-10 03:34:00,
2013-07-09 23:39:00,63.9,62.7,30.02,ESE,103,0.0,0.0,96,0.00,,,0.00,Wunderground v.1.12,2013-07-10 03:39:00,
2013-07-09 23:44:00,63.9,62.7,30.02,ESE,103,0.0,0.0,96,0.00,,,0.00,Wunderground v.1.12,2013-07-10 03:44:00,
2013-07-09 23:49:00,63.9,62.7,30.01,ESE,103,0.0,0.0,96,0.00,,,0.00,Wunderground v.1.12,2013-07-10 03:49:00,
2013-07-09 23:54:00,63.9,62.7,30.01,ESE,103,0.0,0.0,96,0.00,,,0.00,Wunderground v.1.12,2013-07-10 03:54:00,